createdAt,value
2018-01-17T00:00:30.830Z,984.54
2018-01-17T00:02:23.621Z,984.50
2018-01-17T00:03:23.577Z,984.43
2018-01-17T00:05:16.573Z,984.39
2018-01-17T00:06:16.520Z,984.35
2018-01-17T00:08:09.462Z,984.35
2018-01-17T00:09:09.405Z,984.33
2018-01-17T00:11:02.410Z,984.29
2018-01-17T00:12:02.350Z,984.29
2018-01-17T00:13:55.301Z,984.28
2018-01-17T00:14:55.260Z,984.28
2018-01-17T00:16:48.211Z,984.27
2018-01-17T00:17:48.157Z,984.23
2018-01-17T00:19:40.961Z,984.20
2018-01-17T00:20:40.912Z,984.22
2018-01-17T00:22:34.197Z,984.25
2018-01-17T00:23:34.011Z,984.27
2018-01-17T00:25:26.955Z,984.25
2018-01-17T00:26:26.892Z,984.33
2018-01-17T00:28:19.835Z,984.20
2018-01-17T00:29:19.856Z,984.18
2018-01-17T00:31:13.000Z,984.06
2018-01-17T00:32:12.840Z,984.05
2018-01-17T00:34:05.771Z,984.11
2018-01-17T00:35:05.725Z,984.04
2018-01-17T00:36:58.661Z,983.97
2018-01-17T00:37:58.672Z,983.88
2018-01-17T00:39:51.822Z,983.93
2018-01-17T00:40:51.666Z,983.92
2018-01-17T00:42:44.616Z,983.94
2018-01-17T00:43:44.553Z,984.03
2018-01-17T00:45:37.485Z,984.06
2018-01-17T00:46:37.446Z,983.98
2018-01-17T00:48:30.261Z,984.08
2018-01-17T00:49:30.200Z,984.06
2018-01-17T00:51:23.323Z,984.06
2018-01-17T00:52:23.289Z,984.11
2018-01-17T00:54:16.114Z,984.15
2018-01-17T00:55:16.040Z,984.17
2018-01-17T00:57:08.986Z,984.14
2018-01-17T00:58:08.985Z,984.14
2018-01-17T01:00:01.864Z,984.12
2018-01-17T01:01:01.790Z,984.15
2018-01-17T01:02:54.590Z,984.20
2018-01-17T01:03:54.535Z,984.17
2018-01-17T01:05:47.492Z,984.16
2018-01-17T01:06:47.497Z,984.18
2018-01-17T01:08:40.356Z,984.20
2018-01-17T01:09:40.320Z,984.23
2018-01-17T01:11:33.258Z,984.19
2018-01-17T01:12:33.196Z,984.19
2018-01-17T01:14:26.015Z,984.21
2018-01-17T01:15:25.958Z,984.13
2018-01-17T01:17:18.752Z,984.08
2018-01-17T01:18:18.708Z,984.08
2018-01-17T01:20:11.665Z,984.20
2018-01-17T01:21:11.610Z,984.22
2018-01-17T01:23:04.553Z,984.25
2018-01-17T01:24:04.548Z,984.32
2018-01-17T01:25:57.448Z,984.39
2018-01-17T01:26:57.397Z,984.36
2018-01-17T01:28:50.472Z,984.33
2018-01-17T01:29:50.409Z,984.33
2018-01-17T01:31:43.191Z,984.28
2018-01-17T01:32:43.157Z,984.28
2018-01-17T01:34:35.970Z,984.29
2018-01-17T01:35:35.906Z,984.27
2018-01-17T01:37:28.841Z,984.33
2018-01-17T01:38:28.787Z,984.28
2018-01-17T01:40:21.607Z,984.39
2018-01-17T01:41:21.551Z,984.38
2018-01-17T01:43:14.367Z,984.42
2018-01-17T01:44:14.341Z,984.44
2018-01-17T01:46:07.290Z,984.48
2018-01-17T01:47:07.267Z,984.42
2018-01-17T01:49:00.198Z,984.34
2018-01-17T01:50:00.183Z,984.35
2018-01-17T01:51:52.945Z,984.30
2018-01-17T01:52:52.897Z,984.38
2018-01-17T01:54:45.717Z,984.51
2018-01-17T01:55:45.668Z,984.39
2018-01-17T01:57:38.627Z,984.46
2018-01-17T01:58:38.570Z,984.48
2018-01-17T02:00:31.521Z,984.47
2018-01-17T02:01:31.461Z,984.52
2018-01-17T02:03:24.282Z,984.48
2018-01-17T02:04:24.213Z,984.45
2018-01-17T02:06:17.173Z,984.52
2018-01-17T02:07:17.101Z,984.54
2018-01-17T02:09:10.136Z,984.51
2018-01-17T02:10:10.067Z,984.61
2018-01-17T02:12:02.897Z,984.56
2018-01-17T02:13:02.841Z,984.55
2018-01-17T02:14:55.635Z,984.63
2018-01-17T02:15:55.600Z,984.59
2018-01-17T02:17:48.546Z,984.67
2018-01-17T02:18:48.477Z,984.61
2018-01-17T02:20:41.417Z,984.60
2018-01-17T02:21:41.387Z,984.64
2018-01-17T02:23:34.341Z,984.68
2018-01-17T02:24:34.276Z,984.72
2018-01-17T02:26:27.203Z,984.64
2018-01-17T02:27:27.302Z,984.75
2018-01-17T02:29:20.142Z,984.78
2018-01-17T02:30:20.077Z,984.71
2018-01-17T02:32:12.871Z,984.76
2018-01-17T02:33:12.837Z,984.71
2018-01-17T02:35:05.796Z,984.78
2018-01-17T02:36:05.722Z,984.84
2018-01-17T02:37:58.680Z,984.78
2018-01-17T02:38:58.611Z,984.88
2018-01-17T02:40:51.573Z,984.90
2018-01-17T02:41:51.523Z,984.94
2018-01-17T02:43:44.602Z,984.83
2018-01-17T02:44:44.401Z,984.84
2018-01-17T02:46:37.341Z,984.84
2018-01-17T02:47:37.297Z,984.91
2018-01-17T02:49:30.243Z,984.99
2018-01-17T02:50:30.192Z,985.03
2018-01-17T02:52:23.399Z,985.00
2018-01-17T02:53:23.264Z,985.06
2018-01-17T02:55:16.205Z,985.01
2018-01-17T02:56:16.136Z,984.99
2018-01-17T02:58:09.100Z,985.00
2018-01-17T02:59:09.103Z,985.03
2018-01-17T03:01:02.305Z,985.09
2018-01-17T03:02:02.086Z,985.04
2018-01-17T03:03:55.067Z,985.09
2018-01-17T03:04:54.976Z,985.05
2018-01-17T03:06:47.930Z,985.11
2018-01-17T03:07:47.877Z,985.06
2018-01-17T03:09:40.816Z,985.03
2018-01-17T03:10:40.748Z,985.03
2018-01-17T03:12:33.544Z,985.02
2018-01-17T03:13:33.518Z,985.08
2018-01-17T03:15:26.438Z,985.13
2018-01-17T03:16:26.399Z,985.17
2018-01-17T03:18:19.377Z,985.18
2018-01-17T03:19:19.338Z,985.15
2018-01-17T03:21:12.281Z,985.16
2018-01-17T03:22:12.221Z,985.09
2018-01-17T03:24:05.016Z,985.12
2018-01-17T03:25:04.980Z,985.14
2018-01-17T03:26:57.924Z,985.13
2018-01-17T03:27:57.856Z,985.13
2018-01-17T03:29:50.811Z,985.06
2018-01-17T03:30:50.763Z,985.11
2018-01-17T03:32:43.716Z,985.12
2018-01-17T03:33:43.651Z,985.11
2018-01-17T03:35:36.753Z,985.18
2018-01-17T03:36:36.716Z,985.17
2018-01-17T03:38:29.663Z,985.17
2018-01-17T03:39:29.596Z,985.15
2018-01-17T03:41:22.551Z,985.13
2018-01-17T03:42:22.478Z,985.20
2018-01-17T03:44:15.444Z,985.26
2018-01-17T03:45:15.371Z,985.25
2018-01-17T03:47:08.427Z,985.27
2018-01-17T03:48:08.375Z,985.33
2018-01-17T03:50:01.297Z,985.31
2018-01-17T03:51:01.318Z,985.29
2018-01-17T03:52:54.486Z,985.24
2018-01-17T03:53:54.317Z,985.24
2018-01-17T03:55:47.322Z,985.20
2018-01-17T03:56:47.285Z,985.28
2018-01-17T03:58:40.232Z,985.29
2018-01-17T03:59:40.167Z,985.35
2018-01-17T04:01:33.197Z,985.37
2018-01-17T04:02:33.137Z,985.50
2018-01-17T04:04:26.088Z,985.48
2018-01-17T04:05:26.019Z,985.45
2018-01-17T04:07:18.982Z,985.46
2018-01-17T04:08:18.905Z,985.47
2018-01-17T04:10:12.007Z,985.41
2018-01-17T04:11:11.962Z,985.46
2018-01-17T04:13:04.915Z,985.43
2018-01-17T04:14:04.851Z,985.38
2018-01-17T04:15:57.770Z,985.42
2018-01-17T04:16:57.826Z,985.45
2018-01-17T04:18:50.671Z,985.44
2018-01-17T04:19:50.621Z,985.43
2018-01-17T04:21:43.423Z,985.49
2018-01-17T04:22:43.388Z,985.52
2018-01-17T04:24:36.342Z,985.55
2018-01-17T04:25:36.272Z,985.57
2018-01-17T04:27:29.226Z,985.62
2018-01-17T04:28:29.311Z,985.60
2018-01-17T04:30:21.991Z,985.59
2018-01-17T04:31:21.940Z,985.63
2018-01-17T04:33:15.096Z,985.63
2018-01-17T04:34:15.003Z,985.64
2018-01-17T04:36:07.946Z,985.68
2018-01-17T04:37:07.871Z,985.67
2018-01-17T04:39:00.833Z,985.72
2018-01-17T04:40:00.787Z,985.74
2018-01-17T04:41:53.987Z,985.83
2018-01-17T04:42:53.871Z,985.87
2018-01-17T04:44:46.814Z,985.97
2018-01-17T04:45:46.777Z,986.03
2018-01-17T04:47:39.727Z,986.42
2018-01-17T04:48:39.651Z,986.40
2018-01-17T04:50:32.842Z,986.48
2018-01-17T04:51:32.737Z,986.52
2018-01-17T04:53:25.666Z,986.50
2018-01-17T04:54:25.632Z,986.50
2018-01-17T04:56:18.582Z,986.63
2018-01-17T04:57:18.518Z,986.61
2018-01-17T04:59:11.703Z,986.71
2018-01-17T05:00:11.668Z,986.67
2018-01-17T05:02:04.632Z,986.75
2018-01-17T05:03:04.567Z,986.84
2018-01-17T05:04:57.493Z,987.02
2018-01-17T05:05:57.441Z,986.91
2018-01-17T05:07:50.450Z,986.86
2018-01-17T05:08:50.376Z,986.87
2018-01-17T05:10:43.333Z,986.91
2018-01-17T05:11:43.290Z,987.00
2018-01-17T05:13:36.189Z,986.94
2018-01-17T05:14:36.149Z,986.96
2018-01-17T05:16:29.428Z,986.98
2018-01-17T05:17:29.194Z,987.01
2018-01-17T05:19:22.159Z,987.02
2018-01-17T05:20:22.093Z,987.09
2018-01-17T05:22:15.063Z,987.21
2018-01-17T05:23:15.067Z,987.29
2018-01-17T05:25:08.229Z,987.36
2018-01-17T05:26:08.073Z,987.42
2018-01-17T05:28:01.032Z,987.63
2018-01-17T05:29:00.963Z,987.60
2018-01-17T05:30:53.887Z,987.85
2018-01-17T05:31:53.849Z,987.88
2018-01-17T05:33:47.137Z,987.80
2018-01-17T05:34:46.969Z,987.83
2018-01-17T05:36:39.882Z,987.91
2018-01-17T05:37:39.828Z,987.84
2018-01-17T05:39:32.797Z,987.82
2018-01-17T05:40:32.766Z,987.88
2018-01-17T05:42:25.882Z,987.79
2018-01-17T05:43:25.797Z,987.89
2018-01-17T05:45:18.768Z,987.89
2018-01-17T05:46:18.682Z,987.79
2018-01-17T05:48:11.613Z,987.80
2018-01-17T05:49:11.613Z,987.87
2018-01-17T05:51:04.825Z,987.83
2018-01-17T05:52:04.632Z,987.79
2018-01-17T05:53:57.559Z,987.80
2018-01-17T05:54:57.509Z,987.82
2018-01-17T05:56:50.447Z,987.79
2018-01-17T05:57:50.486Z,987.87
2018-01-17T05:59:43.326Z,987.86
2018-01-17T06:00:43.269Z,987.83
2018-01-17T06:02:36.129Z,987.87
2018-01-17T06:03:36.064Z,987.90
2018-01-17T06:05:29.153Z,987.93
2018-01-17T06:06:29.090Z,987.95
2018-01-17T06:08:22.140Z,988.00
2018-01-17T06:09:22.101Z,988.00
2018-01-17T06:11:14.903Z,988.01
2018-01-17T06:12:14.854Z,988.03
2018-01-17T06:14:07.797Z,988.03
2018-01-17T06:15:07.759Z,988.04
2018-01-17T06:17:00.707Z,988.06
2018-01-17T06:18:00.644Z,988.04
2018-01-17T06:19:53.574Z,988.06
2018-01-17T06:20:53.547Z,988.08
2018-01-17T06:22:46.358Z,988.15
2018-01-17T06:23:46.279Z,988.14
2018-01-17T06:25:39.282Z,988.12
2018-01-17T06:26:39.187Z,988.13
2018-01-17T06:28:32.139Z,988.20
2018-01-17T06:29:32.080Z,988.23
2018-01-17T06:31:25.029Z,988.27
2018-01-17T06:32:24.988Z,988.27
2018-01-17T06:34:18.098Z,988.36
2018-01-17T06:35:18.048Z,988.34
2018-01-17T06:37:10.973Z,988.39
2018-01-17T06:38:10.915Z,988.39
2018-01-17T06:40:03.843Z,988.45
2018-01-17T06:41:03.853Z,988.44
2018-01-17T06:42:56.994Z,988.51
2018-01-17T06:43:56.886Z,988.51
2018-01-17T06:45:49.812Z,988.60
2018-01-17T06:46:49.784Z,988.65
2018-01-17T06:48:42.707Z,988.68
2018-01-17T06:49:42.649Z,988.68
2018-01-17T06:51:35.787Z,988.72
2018-01-17T06:52:35.754Z,988.76
2018-01-17T06:54:28.683Z,988.80
2018-01-17T06:55:28.624Z,988.83
2018-01-17T06:57:21.562Z,988.95
2018-01-17T06:58:21.527Z,988.99
2018-01-17T07:00:14.737Z,989.13
2018-01-17T07:01:14.628Z,989.12
2018-01-17T07:03:07.557Z,989.21
2018-01-17T07:04:07.524Z,989.20
2018-01-17T07:06:00.492Z,989.26
2018-01-17T07:07:00.429Z,989.30
2018-01-17T07:08:53.208Z,989.46
2018-01-17T07:09:53.176Z,989.41
2018-01-17T07:11:46.209Z,989.63
2018-01-17T07:12:45.990Z,989.50
2018-01-17T07:14:38.920Z,989.55
2018-01-17T07:15:38.874Z,989.53
2018-01-17T07:17:31.805Z,989.56
2018-01-17T07:18:31.739Z,989.53
2018-01-17T07:20:24.694Z,989.69
2018-01-17T07:21:24.634Z,989.69
2018-01-17T07:23:17.508Z,989.74
2018-01-17T07:24:17.430Z,989.79
2018-01-17T07:26:10.424Z,989.71
2018-01-17T07:27:10.358Z,989.75
2018-01-17T07:29:03.282Z,989.79
2018-01-17T07:30:03.247Z,989.79
2018-01-17T07:31:56.208Z,989.79
2018-01-17T07:32:56.155Z,989.84
2018-01-17T07:34:49.144Z,989.88
2018-01-17T07:35:48.947Z,989.94
2018-01-17T07:37:41.885Z,989.97
2018-01-17T07:38:41.814Z,990.05
2018-01-17T07:40:34.778Z,990.06
2018-01-17T07:41:34.864Z,990.03
2018-01-17T07:43:27.970Z,990.08
2018-01-17T07:44:27.817Z,990.07
2018-01-17T07:46:20.625Z,990.08
2018-01-17T07:47:20.558Z,990.16
2018-01-17T07:49:13.530Z,990.18
2018-01-17T07:50:13.435Z,990.18
2018-01-17T07:52:06.257Z,990.28
2018-01-17T07:53:06.300Z,990.24
2018-01-17T07:54:59.154Z,990.33
2018-01-17T07:55:59.092Z,990.36
2018-01-17T07:57:52.113Z,990.39
2018-01-17T07:58:52.037Z,990.33
2018-01-17T08:00:44.962Z,990.40
2018-01-17T08:01:44.925Z,990.39
2018-01-17T08:03:37.843Z,990.41
2018-01-17T08:04:37.785Z,990.45
2018-01-17T08:06:30.864Z,990.47
2018-01-17T08:07:30.814Z,990.48
2018-01-17T08:09:23.765Z,990.55
2018-01-17T08:10:23.695Z,990.53
2018-01-17T08:12:16.663Z,990.66
2018-01-17T08:13:16.598Z,990.65
2018-01-17T08:15:09.808Z,990.72
2018-01-17T08:16:09.655Z,990.71
2018-01-17T08:18:02.583Z,990.73
2018-01-17T08:19:02.539Z,990.69
2018-01-17T08:20:55.513Z,990.80
2018-01-17T08:21:55.505Z,990.87
2018-01-17T08:23:48.683Z,990.93
2018-01-17T08:24:48.548Z,990.95
2018-01-17T08:26:41.468Z,990.96
2018-01-17T08:27:41.435Z,990.99
2018-01-17T08:29:34.396Z,991.00
2018-01-17T08:30:34.309Z,991.03
2018-01-17T08:32:27.538Z,991.04
2018-01-17T08:33:27.411Z,991.01
2018-01-17T08:35:20.385Z,991.06
2018-01-17T08:36:20.292Z,991.11
2018-01-17T08:38:13.229Z,991.16
2018-01-17T08:39:13.198Z,991.22
2018-01-17T08:41:06.428Z,991.25
2018-01-17T08:42:06.234Z,991.28
2018-01-17T08:43:59.180Z,991.19
2018-01-17T08:44:59.109Z,991.24
2018-01-17T08:46:52.026Z,991.38
2018-01-17T08:47:51.978Z,991.42
2018-01-17T08:49:45.236Z,991.43
2018-01-17T08:50:45.103Z,991.47
2018-01-17T08:52:38.024Z,991.54
2018-01-17T08:53:37.983Z,991.46
2018-01-17T08:55:31.298Z,991.57
2018-01-17T08:56:31.228Z,991.60
2018-01-17T08:58:24.548Z,991.69
2018-01-17T08:59:24.474Z,991.63
2018-01-17T09:01:17.623Z,991.63
2018-01-17T09:02:17.540Z,991.65
2018-01-17T09:04:10.516Z,991.74
2018-01-17T09:05:10.465Z,991.70
2018-01-17T09:07:03.415Z,991.75
2018-01-17T09:08:03.366Z,991.66
2018-01-17T09:09:56.535Z,991.69
2018-01-17T09:10:56.425Z,991.72
2018-01-17T09:12:49.424Z,991.74
2018-01-17T09:13:49.315Z,991.82
2018-01-17T09:15:42.310Z,991.86
2018-01-17T09:16:42.268Z,991.89
2018-01-17T09:18:35.401Z,991.95
2018-01-17T09:19:35.288Z,991.92
2018-01-17T09:21:28.238Z,991.92
2018-01-17T09:22:28.166Z,991.88
2018-01-17T09:24:21.125Z,991.93
2018-01-17T09:25:21.073Z,992.00
2018-01-17T09:27:14.303Z,992.02
2018-01-17T09:28:14.139Z,992.09
2018-01-17T09:30:07.099Z,992.08
2018-01-17T09:31:07.028Z,992.12
2018-01-17T09:32:59.956Z,992.17
2018-01-17T09:33:59.916Z,992.18
2018-01-17T09:35:53.178Z,992.22
2018-01-17T09:36:52.953Z,992.20
2018-01-17T09:38:45.803Z,992.25
2018-01-17T09:39:45.713Z,992.29
2018-01-17T09:41:38.664Z,992.26
2018-01-17T09:42:38.602Z,992.33
2018-01-17T09:44:31.569Z,992.28
2018-01-17T09:45:31.515Z,992.29
2018-01-17T09:47:24.505Z,992.32
2018-01-17T09:48:24.405Z,992.37
2018-01-17T09:50:17.372Z,992.35
2018-01-17T09:51:17.344Z,992.34
2018-01-17T09:53:10.238Z,992.22
2018-01-17T09:54:10.185Z,992.18
2018-01-17T09:56:03.471Z,992.29
2018-01-17T09:57:03.279Z,992.48
2018-01-17T09:58:56.185Z,992.55
2018-01-17T09:59:56.149Z,992.58
2018-01-17T10:01:48.969Z,992.72
2018-01-17T10:02:48.899Z,992.56
2018-01-17T10:04:41.834Z,992.65
2018-01-17T10:05:41.779Z,992.47
2018-01-17T10:07:34.964Z,992.57
2018-01-17T10:08:34.901Z,992.58
2018-01-17T10:10:27.831Z,992.72
2018-01-17T10:11:27.785Z,992.75
2018-01-17T10:13:20.734Z,992.79
2018-01-17T10:14:20.691Z,992.81
2018-01-17T10:16:13.485Z,992.85
2018-01-17T10:17:13.426Z,992.83
2018-01-17T10:19:06.435Z,992.79
2018-01-17T10:20:06.375Z,992.83
2018-01-17T10:21:59.315Z,992.87
2018-01-17T10:22:59.256Z,992.84
2018-01-17T10:24:52.189Z,992.80
2018-01-17T10:25:52.137Z,992.86
2018-01-17T10:27:44.980Z,992.87
2018-01-17T10:28:44.919Z,992.92
2018-01-17T10:30:37.725Z,992.90
2018-01-17T10:31:37.668Z,992.92
2018-01-17T10:33:30.619Z,993.02
2018-01-17T10:34:30.555Z,993.10
2018-01-17T10:36:23.360Z,993.12
2018-01-17T10:37:23.311Z,993.12
2018-01-17T10:39:16.758Z,993.09
2018-01-17T10:40:16.556Z,993.10
2018-01-17T10:42:09.490Z,993.03
2018-01-17T10:43:09.443Z,993.08
2018-01-17T10:45:02.402Z,993.14
2018-01-17T10:46:02.338Z,993.12
2018-01-17T10:47:55.280Z,993.17
2018-01-17T10:48:55.205Z,993.18
2018-01-17T10:50:48.265Z,993.28
2018-01-17T10:51:48.197Z,993.28
2018-01-17T10:53:41.141Z,993.34
2018-01-17T10:54:41.096Z,993.35
2018-01-17T10:56:33.998Z,993.29
2018-01-17T10:57:33.965Z,993.25
2018-01-17T10:59:26.917Z,993.23
2018-01-17T11:00:26.856Z,993.26
2018-01-17T11:02:19.787Z,993.35
2018-01-17T11:03:19.747Z,993.26
2018-01-17T11:05:12.721Z,993.29
2018-01-17T11:06:12.683Z,993.23
2018-01-17T11:08:05.569Z,993.30
2018-01-17T11:09:05.524Z,993.20
2018-01-17T11:10:58.579Z,993.25
2018-01-17T11:11:58.417Z,993.30
2018-01-17T11:13:51.387Z,993.27
2018-01-17T11:14:51.301Z,993.22
2018-01-17T11:16:44.226Z,993.32
2018-01-17T11:17:44.175Z,993.32
2018-01-17T11:19:37.521Z,993.38
2018-01-17T11:20:37.256Z,993.42
2018-01-17T11:22:30.184Z,993.42
2018-01-17T11:23:30.139Z,993.34
2018-01-17T11:25:23.104Z,993.40
2018-01-17T11:26:23.050Z,993.42
2018-01-17T11:28:16.270Z,993.46
2018-01-17T11:29:16.328Z,993.48
2018-01-17T11:31:09.059Z,993.45
2018-01-17T11:32:08.981Z,993.48
2018-01-17T11:34:01.915Z,993.75
2018-01-17T11:35:01.870Z,993.68
2018-01-17T11:36:54.806Z,993.62
2018-01-17T11:37:54.746Z,993.38
2018-01-17T11:39:47.541Z,993.45
2018-01-17T11:40:47.498Z,993.46
2018-01-17T11:42:40.446Z,993.52
2018-01-17T11:43:40.265Z,993.51
2018-01-17T11:45:33.194Z,993.60
2018-01-17T11:46:33.153Z,993.55
2018-01-17T11:48:26.460Z,993.55
2018-01-17T11:49:26.400Z,993.60
2018-01-17T11:51:19.350Z,993.61
2018-01-17T11:52:19.280Z,993.59
2018-01-17T11:54:12.230Z,993.59
2018-01-17T11:55:12.280Z,993.63
2018-01-17T11:57:05.286Z,993.61
2018-01-17T11:58:05.247Z,993.55
2018-01-17T11:59:58.207Z,993.55
2018-01-17T12:00:58.123Z,993.68
2018-01-17T12:02:51.066Z,993.74
2018-01-17T12:03:51.021Z,993.70
2018-01-17T12:05:43.988Z,993.76
2018-01-17T12:06:43.918Z,993.75
2018-01-17T12:08:37.005Z,993.71
2018-01-17T12:09:36.890Z,993.81
2018-01-17T12:11:29.835Z,993.69
2018-01-17T12:12:29.777Z,993.86
2018-01-17T12:14:22.732Z,993.92
2018-01-17T12:15:22.669Z,994.00
2018-01-17T12:17:15.797Z,993.99
2018-01-17T12:18:15.773Z,994.00
2018-01-17T12:20:08.701Z,994.01
2018-01-17T12:21:08.636Z,993.98
2018-01-17T12:23:01.619Z,994.00
2018-01-17T12:24:01.555Z,994.02
2018-01-17T12:25:54.484Z,994.00
2018-01-17T12:26:54.430Z,994.04
2018-01-17T12:28:47.383Z,994.05
2018-01-17T12:29:47.322Z,994.01
2018-01-17T12:31:40.139Z,994.74
2018-01-17T12:32:40.094Z,994.41
2018-01-17T12:34:33.041Z,994.75
2018-01-17T12:35:32.984Z,994.65
2018-01-17T12:37:26.151Z,993.87
2018-01-17T12:38:26.050Z,993.94
2018-01-17T12:40:18.972Z,994.70
2018-01-17T12:41:18.917Z,994.58
2018-01-17T12:43:11.839Z,994.28
2018-01-17T12:44:11.872Z,994.55
2018-01-17T12:46:04.960Z,994.69
2018-01-17T12:47:04.880Z,994.46
2018-01-17T12:48:57.840Z,994.09
2018-01-17T12:49:57.760Z,994.21
2018-01-17T12:51:50.724Z,994.10
2018-01-17T12:52:50.730Z,994.19
2018-01-17T12:54:43.816Z,994.27
2018-01-17T12:55:43.736Z,994.20
2018-01-17T12:57:36.600Z,994.26
2018-01-17T12:58:36.486Z,994.26
2018-01-17T13:00:29.407Z,994.32
2018-01-17T13:01:29.368Z,994.34
2018-01-17T13:03:22.330Z,994.25
2018-01-17T13:04:22.269Z,994.30
2018-01-17T13:06:15.349Z,994.22
2018-01-17T13:07:15.161Z,994.64
2018-01-17T13:09:08.104Z,994.57
2018-01-17T13:10:08.046Z,994.07
2018-01-17T13:12:00.837Z,994.24
2018-01-17T13:13:00.801Z,994.61
2018-01-17T13:14:53.740Z,994.60
2018-01-17T13:15:53.687Z,994.24
2018-01-17T13:17:46.839Z,994.08
2018-01-17T13:18:46.747Z,994.09
2018-01-17T13:20:39.700Z,994.16
2018-01-17T13:21:39.648Z,994.23
2018-01-17T13:23:32.560Z,994.29
2018-01-17T13:24:32.524Z,994.24
2018-01-17T13:26:25.680Z,994.30
2018-01-17T13:27:25.596Z,994.37
2018-01-17T13:29:18.521Z,994.50
2018-01-17T13:30:18.487Z,994.42
2018-01-17T13:32:11.296Z,994.34
2018-01-17T13:33:11.282Z,994.56
2018-01-17T13:35:04.163Z,994.45
2018-01-17T13:36:04.121Z,994.45
2018-01-17T13:37:57.170Z,994.47
2018-01-17T13:38:57.075Z,994.46
2018-01-17T13:40:50.011Z,994.48
2018-01-17T13:41:49.962Z,994.46
2018-01-17T13:43:42.917Z,994.53
2018-01-17T13:44:42.849Z,994.51
2018-01-17T13:46:36.033Z,994.65
2018-01-17T13:47:35.876Z,994.60
2018-01-17T13:49:28.806Z,994.54
2018-01-17T13:50:28.770Z,994.56
2018-01-17T13:52:21.587Z,994.53
2018-01-17T13:53:21.518Z,994.49
2018-01-17T13:55:14.862Z,994.69
2018-01-17T13:56:14.776Z,995.05
2018-01-17T13:58:07.725Z,994.56
2018-01-17T13:59:07.653Z,994.57
2018-01-17T14:01:00.568Z,994.53
2018-01-17T14:02:00.549Z,994.69
2018-01-17T14:03:53.641Z,994.78
2018-01-17T14:04:53.585Z,994.85
2018-01-17T14:06:46.607Z,994.76
2018-01-17T14:07:46.564Z,994.83
2018-01-17T14:09:39.797Z,994.83
2018-01-17T14:10:39.732Z,994.91
2018-01-17T14:12:32.565Z,994.99
2018-01-17T14:13:32.490Z,995.05
2018-01-17T14:15:25.407Z,994.93
2018-01-17T14:16:25.373Z,995.02
2018-01-17T14:18:18.302Z,995.11
2018-01-17T14:19:18.263Z,995.20
2018-01-17T14:21:11.477Z,995.13
2018-01-17T14:22:11.385Z,995.21
2018-01-17T14:24:04.320Z,995.16
2018-01-17T14:25:04.252Z,995.21
2018-01-17T14:26:57.159Z,995.16
2018-01-17T14:27:57.166Z,995.23
2018-01-17T14:29:50.360Z,995.20
2018-01-17T14:30:50.186Z,995.26
2018-01-17T14:32:43.107Z,995.23
2018-01-17T14:33:43.056Z,995.35
2018-01-17T14:35:36.032Z,995.28
2018-01-17T14:36:36.010Z,995.34
2018-01-17T14:38:29.180Z,995.38
2018-01-17T14:39:29.061Z,995.41
2018-01-17T14:41:22.008Z,995.49
2018-01-17T14:42:21.940Z,995.47
2018-01-17T14:44:14.855Z,995.61
2018-01-17T14:45:14.808Z,995.58
2018-01-17T14:47:08.041Z,995.80
2018-01-17T14:48:07.861Z,995.73
2018-01-17T14:50:00.787Z,995.84
2018-01-17T14:51:00.744Z,995.92
2018-01-17T14:52:53.666Z,995.86
2018-01-17T14:53:53.615Z,995.91
2018-01-17T14:55:46.851Z,996.06
2018-01-17T14:56:46.646Z,996.11
2018-01-17T14:58:39.593Z,996.18
2018-01-17T14:59:39.523Z,996.20
2018-01-17T15:01:32.467Z,996.15
2018-01-17T15:02:32.407Z,996.23
2018-01-17T15:04:25.333Z,996.27
2018-01-17T15:05:25.292Z,996.23
2018-01-17T15:07:18.112Z,996.31
2018-01-17T15:08:18.077Z,996.33
2018-01-17T15:10:10.970Z,996.45
2018-01-17T15:11:10.924Z,996.38
2018-01-17T15:13:03.871Z,996.49
2018-01-17T15:14:03.822Z,996.49
2018-01-17T15:15:56.728Z,996.48
2018-01-17T15:16:56.714Z,996.55
2018-01-17T15:18:49.536Z,996.65
2018-01-17T15:19:49.471Z,996.66
2018-01-17T15:21:42.371Z,996.67
2018-01-17T15:22:42.307Z,996.71
2018-01-17T15:24:35.291Z,996.72
2018-01-17T15:25:35.239Z,996.70
2018-01-17T15:27:28.157Z,996.73
2018-01-17T15:28:28.097Z,996.72
2018-01-17T15:30:21.282Z,996.69
2018-01-17T15:31:21.165Z,996.68
2018-01-17T15:33:14.113Z,996.64
2018-01-17T15:34:14.045Z,996.64
2018-01-17T15:36:06.982Z,996.60
2018-01-17T15:37:06.940Z,996.61
2018-01-17T15:39:00.162Z,996.65
2018-01-17T15:39:59.973Z,996.61
2018-01-17T15:41:52.928Z,996.61
2018-01-17T15:42:52.868Z,996.65
2018-01-17T15:44:45.816Z,996.74
2018-01-17T15:45:45.766Z,996.75
2018-01-17T15:47:38.683Z,996.70
2018-01-17T15:48:38.638Z,996.79
2018-01-17T15:50:31.704Z,996.80
2018-01-17T15:51:31.590Z,996.80
2018-01-17T15:53:24.537Z,996.84
2018-01-17T15:54:24.487Z,996.86
2018-01-17T15:56:17.412Z,996.94
2018-01-17T15:57:17.360Z,997.07
2018-01-17T15:59:10.484Z,997.08
2018-01-17T16:00:10.417Z,997.08
2018-01-17T16:02:03.408Z,997.02
2018-01-17T16:03:03.337Z,997.02
2018-01-17T16:04:56.276Z,997.10
2018-01-17T16:05:56.237Z,997.05
2018-01-17T16:07:49.361Z,997.10
2018-01-17T16:08:49.325Z,997.17
2018-01-17T16:10:42.141Z,997.22
2018-01-17T16:11:42.071Z,997.27
2018-01-17T16:13:34.981Z,997.32
2018-01-17T16:14:35.043Z,997.36
2018-01-17T16:16:27.866Z,997.37
2018-01-17T16:17:27.817Z,997.43
2018-01-17T16:19:20.605Z,997.53
2018-01-17T16:20:20.594Z,997.60
2018-01-17T16:22:13.448Z,997.62
2018-01-17T16:23:13.337Z,997.63
2018-01-17T16:25:06.313Z,997.79
2018-01-17T16:26:06.263Z,997.74
2018-01-17T16:27:59.197Z,997.88
2018-01-17T16:28:59.141Z,997.82
2018-01-17T16:30:52.426Z,997.95
2018-01-17T16:31:52.193Z,997.94
2018-01-17T16:33:45.108Z,997.89
2018-01-17T16:34:45.061Z,997.95
2018-01-17T16:36:38.029Z,997.95
2018-01-17T16:37:37.976Z,997.96
2018-01-17T16:39:31.113Z,997.95
2018-01-17T16:40:30.956Z,997.91
2018-01-17T16:42:23.924Z,997.99
2018-01-17T16:43:23.857Z,997.93
2018-01-17T16:45:16.778Z,998.01
2018-01-17T16:46:16.755Z,998.09
2018-01-17T16:48:09.571Z,998.20
2018-01-17T16:49:09.507Z,998.19
2018-01-17T16:51:02.636Z,998.29
2018-01-17T16:52:02.526Z,998.31
2018-01-17T16:53:55.347Z,998.32
2018-01-17T16:54:55.321Z,998.30
2018-01-17T16:56:48.231Z,998.31
2018-01-17T16:57:48.186Z,998.31
2018-01-17T16:59:41.113Z,998.37
2018-01-17T17:00:41.058Z,998.39
2018-01-17T17:02:33.914Z,998.38
2018-01-17T17:03:33.859Z,998.39
2018-01-17T17:05:26.736Z,998.38
2018-01-17T17:06:26.651Z,998.34
2018-01-17T17:08:19.593Z,998.38
2018-01-17T17:09:19.540Z,998.41
2018-01-17T17:11:12.453Z,998.45
2018-01-17T17:12:12.414Z,998.51
2018-01-17T17:14:05.549Z,998.46
2018-01-17T17:15:05.482Z,998.47
2018-01-17T17:16:58.401Z,998.52
2018-01-17T17:17:58.386Z,998.58
2018-01-17T17:19:51.321Z,998.47
2018-01-17T17:20:51.309Z,998.50
2018-01-17T17:22:44.304Z,998.51
2018-01-17T17:23:44.267Z,998.52
2018-01-17T17:25:37.214Z,998.55
2018-01-17T17:26:37.163Z,998.52
2018-01-17T17:28:30.123Z,998.62
2018-01-17T17:29:30.099Z,998.61
2018-01-17T17:31:22.988Z,998.59
2018-01-17T17:32:22.942Z,998.59
2018-01-17T17:34:15.784Z,998.65
2018-01-17T17:35:15.721Z,998.65
2018-01-17T17:37:08.567Z,998.66
2018-01-17T17:38:08.493Z,998.63
2018-01-17T17:40:01.418Z,998.66
2018-01-17T17:41:01.348Z,998.72
2018-01-17T17:42:54.291Z,998.73
2018-01-17T17:43:54.363Z,998.72
2018-01-17T17:45:47.468Z,998.74
2018-01-17T17:46:47.320Z,998.74
2018-01-17T17:48:40.228Z,998.75
2018-01-17T17:49:40.184Z,998.67
2018-01-17T17:51:33.133Z,998.69
2018-01-17T17:52:33.071Z,998.64
2018-01-17T17:54:26.400Z,998.66
2018-01-17T17:55:26.143Z,998.72
2018-01-17T17:57:19.078Z,998.78
2018-01-17T17:58:19.006Z,998.71